Besiktas Bosphorus — TCOG3 — position and weather

sailwx.info

Track history (hours):
 
Tides and Currents Weather Stations Pressure Air Temp Water Temp Dewpoint Dewpoint Depression Visibility Wind Speed Wind Dir Waves Ship Positions

Besiktas Bosphorus

Last reported at 2014-Oct-02 11:33 UTC. Time now 2014-Oct-02 12:38 UTC.
Position N 37°27' E 024°00'.

Length 274 m; draft 15.3 m.

Type: Ship (hazmat cat A). MMSI: 271000817.

Date/timePositionNaut miles runAvg speedWind from/ knotsBaromVisibWave heightAir tempDewpointWater temp
2014-Oct-02 11:33N 37°27' E 024°00'3113.2
2014-Oct-02 09:12N 37°50' E 024°26'913.2
2014-Oct-02 08:34N 37°55' E 024°34'6613.0
2014-Oct-02 03:30N 38°55' E 025°10'63 4.9
2014-Oct-01 14:32N 39°47' E 025°56'2 2.0
2014-Oct-01 13:33N 39°46' E 025°54'1110.6
2014-Oct-01 12:33N 39°57' E 025°55'137 5.3
2014-Sep-30 10:25N 40°53' E 028°39'1011.2
2014-Sep-30 09:33N 40°55' E 028°52'2 2.2
2014-Sep-30 08:33N 40°56' E 028°54'1 1.3
2014-Sep-30 07:30N 40°57' E 028°56'3 3.2
2014-Sep-30 06:33N 40°59' E 028°59'35 1.8
2014-Sep-29 10:32N 41°27' E 029°26'40712.3
2014-Sep-28 01:33N 44°34' E 037°40'3 2.5
2014-Sep-28 00:33N 44°36' E 037°43'1 0.5
2014-Sep-27 23:33N 44°37' E 037°43'1 0.6
2014-Sep-27 22:33N 44°37' E 037°44'1 0.7
2014-Sep-27 21:33N 44°37' E 037°43'0 0.2
2014-Sep-27 20:33N 44°37' E 037°43'0 0.4
2014-Sep-27 19:33N 44°37' E 037°43'3 3.0
2014-Sep-27 18:33N 44°36' E 037°39'2 2.0
2014-Sep-27 17:32N 44°37' E 037°37'1 0.1
2014-Sep-27 08:05N 44°38' E 037°38'0 0.0
2014-Sep-27 07:14N 44°38' E 037°38'0 0.0
2014-Sep-27 06:14N 44°38' E 037°38'0 0.0
2014-Sep-27 05:29N 44°38' E 037°38'0 0.0
2014-Sep-27 04:33N 44°38' E 037°38'0 0.1
2014-Sep-27 03:34N 44°38' E 037°38'0 0.0
2014-Sep-27 02:31N 44°38' E 037°38'0 0.0
2014-Sep-27 01:33N 44°38' E 037°38'0 0.0
2014-Sep-27 00:34N 44°38' E 037°38'0 0.0
2014-Sep-26 23:34N 44°38' E 037°38'0 0.0
2014-Sep-26 22:33N 44°38' E 037°38'0 0.0
2014-Sep-26 21:33N 44°38' E 037°38'0 0.4
2014-Sep-26 20:33N 44°38' E 037°38'2 2.4
2014-Sep-26 19:34N 44°35' E 037°37'7 6.5
2014-Sep-26 18:33N 44°33' E 037°46'3 3.3
2014-Sep-26 17:33N 44°34' E 037°50'1 1.1
2014-Sep-26 16:34N 44°33' E 037°51'1 1.0
2014-Sep-26 15:34N 44°32' E 037°52'1 0.5
2014-Sep-26 14:34N 44°31' E 037°52'2 1.9
2014-Sep-26 13:34N 44°33' E 037°51'1 0.6
2014-Sep-26 12:34N 44°33' E 037°50'0 0.4
2014-Sep-26 11:34N 44°33' E 037°50'0 0.4
2014-Sep-26 10:34N 44°33' E 037°50'1 0.5
2014-Sep-26 09:34N 44°32' E 037°51'0 0.4
2014-Sep-26 08:33N 44°32' E 037°51'1 1.1
2014-Sep-26 07:34N 44°31' E 037°50'6 5.6
2014-Sep-26 06:33N 44°26' E 037°46'1 0.9
2014-Sep-26 05:33N 44°26' E 037°47'1 0.9
2014-Sep-26 04:34N 44°27' E 037°48'1 0.9
2014-Sep-26 03:33N 44°28' E 037°49'1 0.8
2014-Sep-26 02:34N 44°29' E 037°49'1 0.6
2014-Sep-26 01:33N 44°29' E 037°49'3 3.2
2014-Sep-26 00:34N 44°32' E 037°48'6 5.6
2014-Sep-25 23:34N 44°38' E 037°46'1 1.5
2014-Sep-25 22:34N 44°37' E 037°44'2 2.4
2014-Sep-25 21:34N 44°35' E 037°47'0 0.3
2014-Sep-25 20:33N 44°35' E 037°47'2 1.5
2014-Sep-25 19:33N 44°37' E 037°46'1 1.4
2014-Sep-25 18:34N 44°35' E 037°45'1 1.3
2014-Sep-25 17:33N 44°34' E 037°45'1 1.1
2014-Sep-25 16:34N 44°33' E 037°45'5 4.9
2014-Sep-25 15:34N 44°33' E 037°51'1 0.9
2014-Sep-25 14:33N 44°33' E 037°50'1 1.5
2014-Sep-25 13:34N 44°32' E 037°48'2 1.5
2014-Sep-25 12:33N 44°32' E 037°46'1 1.4
2014-Sep-25 11:34N 44°31' E 037°45'1 1.2
2014-Sep-25 10:33N 44°30' E 037°43'1 1.1
2014-Sep-25 09:34N 44°29' E 037°42'1 1.0
2014-Sep-25 08:34N 44°29' E 037°41'1 1.4
2014-Sep-25 07:33N 44°29' E 037°39'2 1.8
2014-Sep-25 06:33N 44°28' E 037°37'2 1.9
2014-Sep-25 05:33N 44°27' E 037°34'4 3.7
2014-Sep-25 04:33N 44°24' E 037°32'5 4.8
2014-Sep-25 03:33N 44°22' E 037°38'2 1.7
2014-Sep-25 02:34N 44°22' E 037°41'6 5.2
2014-Sep-25 01:25N 44°23' E 037°49'3 3.7
2014-Sep-25 00:33N 44°23' E 037°53'6 5.8
2014-Sep-24 23:34N 44°18' E 037°49'5 5.3
2014-Sep-24 22:32N 44°14' E 037°44'5 1.4
2014-Sep-24 19:09N 44°18' E 037°42'3 4.9
2014-Sep-24 18:30N 44°21' E 037°44'4 4.3
2014-Sep-24 17:33N 44°25' E 037°46'3 3.4
2014-Sep-24 16:33N 44°28' E 037°47'2 1.7
2014-Sep-24 15:33N 44°28' E 037°49'3 3.0
2014-Sep-24 14:34N 44°25' E 037°52'7 7.5
2014-Sep-24 13:34N 44°21' E 037°43'7 6.8
2014-Sep-24 12:33N 44°20' E 037°33'4 4.0
2014-Sep-24 11:32N 44°20' E 037°27'3 3.4
2014-Sep-24 10:33N 44°22' E 037°32'4 3.6
2014-Sep-24 09:33N 44°24' E 037°36'3 2.9
2014-Sep-24 08:33N 44°24' E 037°40'3 2.9
2014-Sep-24 07:34N 44°26' E 037°42'2 2.2
2014-Sep-24 06:33N 44°28' E 037°45'3 3.4
2014-Sep-24 05:34N 44°31' E 037°46'9 9.1
2014-Sep-24 04:34N 44°25' E 037°36'8 7.9
2014-Sep-24 03:34N 44°22' E 037°26'  
Track history (hours):
 
Tides and Currents Weather Stations Pressure Air Temp Water Temp Dewpoint Dewpoint Depression Visibility Wind Speed Wind Dir Waves Ship Positions

Besiktas Bosphorus

Last reported at 2014-Oct-02 11:33 UTC. Time now 2014-Oct-02 12:38 UTC.
Position N 37°27' E 024°00'.

Length 274 m; draft 15.3 m.

Type: Ship (hazmat cat A). MMSI: 271000817.

Date/timePositionNaut miles runAvg speedWind from/ knotsBaromVisibWave heightAir tempDewpointWater temp
2014-Oct-02 11:33N 37°27' E 024°00'3113.2
2014-Oct-02 09:12N 37°50' E 024°26'913.2
2014-Oct-02 08:34N 37°55' E 024°34'6613.0
2014-Oct-02 03:30N 38°55' E 025°10'63 4.9
2014-Oct-01 14:32N 39°47' E 025°56'2 2.0
2014-Oct-01 13:33N 39°46' E 025°54'1110.6
2014-Oct-01 12:33N 39°57' E 025°55'137 5.3
2014-Sep-30 10:25N 40°53' E 028°39'1011.2
2014-Sep-30 09:33N 40°55' E 028°52'2 2.2
2014-Sep-30 08:33N 40°56' E 028°54'1 1.3
2014-Sep-30 07:30N 40°57' E 028°56'3 3.2
2014-Sep-30 06:33N 40°59' E 028°59'35 1.8
2014-Sep-29 10:32N 41°27' E 029°26'40712.3
2014-Sep-28 01:33N 44°34' E 037°40'3 2.5
2014-Sep-28 00:33N 44°36' E 037°43'1 0.5
2014-Sep-27 23:33N 44°37' E 037°43'1 0.6
2014-Sep-27 22:33N 44°37' E 037°44'1 0.7
2014-Sep-27 21:33N 44°37' E 037°43'0 0.2
2014-Sep-27 20:33N 44°37' E 037°43'0 0.4
2014-Sep-27 19:33N 44°37' E 037°43'3 3.0
2014-Sep-27 18:33N 44°36' E 037°39'2 2.0
2014-Sep-27 17:32N 44°37' E 037°37'1 0.1
2014-Sep-27 08:05N 44°38' E 037°38'0 0.0
2014-Sep-27 07:14N 44°38' E 037°38'0 0.0
2014-Sep-27 06:14N 44°38' E 037°38'0 0.0
2014-Sep-27 05:29N 44°38' E 037°38'0 0.0
2014-Sep-27 04:33N 44°38' E 037°38'0 0.1
2014-Sep-27 03:34N 44°38' E 037°38'0 0.0
2014-Sep-27 02:31N 44°38' E 037°38'0 0.0
2014-Sep-27 01:33N 44°38' E 037°38'0 0.0
2014-Sep-27 00:34N 44°38' E 037°38'0 0.0
2014-Sep-26 23:34N 44°38' E 037°38'0 0.0
2014-Sep-26 22:33N 44°38' E 037°38'0 0.0
2014-Sep-26 21:33N 44°38' E 037°38'0 0.4
2014-Sep-26 20:33N 44°38' E 037°38'2 2.4
2014-Sep-26 19:34N 44°35' E 037°37'7 6.5
2014-Sep-26 18:33N 44°33' E 037°46'3 3.3
2014-Sep-26 17:33N 44°34' E 037°50'1 1.1
2014-Sep-26 16:34N 44°33' E 037°51'1 1.0
2014-Sep-26 15:34N 44°32' E 037°52'1 0.5
2014-Sep-26 14:34N 44°31' E 037°52'2 1.9
2014-Sep-26 13:34N 44°33' E 037°51'1 0.6
2014-Sep-26 12:34N 44°33' E 037°50'0 0.4
2014-Sep-26 11:34N 44°33' E 037°50'0 0.4
2014-Sep-26 10:34N 44°33' E 037°50'1 0.5
2014-Sep-26 09:34N 44°32' E 037°51'0 0.4
2014-Sep-26 08:33N 44°32' E 037°51'1 1.1
2014-Sep-26 07:34N 44°31' E 037°50'6 5.6
2014-Sep-26 06:33N 44°26' E 037°46'1 0.9
2014-Sep-26 05:33N 44°26' E 037°47'1 0.9
2014-Sep-26 04:34N 44°27' E 037°48'1 0.9
2014-Sep-26 03:33N 44°28' E 037°49'1 0.8
2014-Sep-26 02:34N 44°29' E 037°49'1 0.6
2014-Sep-26 01:33N 44°29' E 037°49'3 3.2
2014-Sep-26 00:34N 44°32' E 037°48'6 5.6
2014-Sep-25 23:34N 44°38' E 037°46'1 1.5
2014-Sep-25 22:34N 44°37' E 037°44'2 2.4
2014-Sep-25 21:34N 44°35' E 037°47'0 0.3
2014-Sep-25 20:33N 44°35' E 037°47'2 1.5
2014-Sep-25 19:33N 44°37' E 037°46'1 1.4
2014-Sep-25 18:34N 44°35' E 037°45'1 1.3
2014-Sep-25 17:33N 44°34' E 037°45'1 1.1
2014-Sep-25 16:34N 44°33' E 037°45'5 4.9
2014-Sep-25 15:34N 44°33' E 037°51'1 0.9
2014-Sep-25 14:33N 44°33' E 037°50'1 1.5
2014-Sep-25 13:34N 44°32' E 037°48'2 1.5
2014-Sep-25 12:33N 44°32' E 037°46'1 1.4
2014-Sep-25 11:34N 44°31' E 037°45'1 1.2
2014-Sep-25 10:33N 44°30' E 037°43'1 1.1
2014-Sep-25 09:34N 44°29' E 037°42'1 1.0
2014-Sep-25 08:34N 44°29' E 037°41'1 1.4
2014-Sep-25 07:33N 44°29' E 037°39'2 1.8
2014-Sep-25 06:33N 44°28' E 037°37'2 1.9
2014-Sep-25 05:33N 44°27' E 037°34'4 3.7
2014-Sep-25 04:33N 44°24' E 037°32'5 4.8
2014-Sep-25 03:33N 44°22' E 037°38'2 1.7
2014-Sep-25 02:34N 44°22' E 037°41'6 5.2
2014-Sep-25 01:25N 44°23' E 037°49'3 3.7
2014-Sep-25 00:33N 44°23' E 037°53'6 5.8
2014-Sep-24 23:34N 44°18' E 037°49'5 5.3
2014-Sep-24 22:32N 44°14' E 037°44'5 1.4
2014-Sep-24 19:09N 44°18' E 037°42'3 4.9
2014-Sep-24 18:30N 44°21' E 037°44'4 4.3
2014-Sep-24 17:33N 44°25' E 037°46'3 3.4
2014-Sep-24 16:33N 44°28' E 037°47'2 1.7
2014-Sep-24 15:33N 44°28' E 037°49'3 3.0
2014-Sep-24 14:34N 44°25' E 037°52'7 7.5
2014-Sep-24 13:34N 44°21' E 037°43'7 6.8
2014-Sep-24 12:33N 44°20' E 037°33'4 4.0
2014-Sep-24 11:32N 44°20' E 037°27'3 3.4
2014-Sep-24 10:33N 44°22' E 037°32'4 3.6
2014-Sep-24 09:33N 44°24' E 037°36'3 2.9
2014-Sep-24 08:33N 44°24' E 037°40'3 2.9
2014-Sep-24 07:34N 44°26' E 037°42'2 2.2
2014-Sep-24 06:33N 44°28' E 037°45'3 3.4
2014-Sep-24 05:34N 44°31' E 037°46'9 9.1
2014-Sep-24 04:34N 44°25' E 037°36'8 7.9
2014-Sep-24 03:34N 44°22' E 037°26'  

Dump ship's entire track history